Leesville, Ohio
Current Conditions -  °F | °C
As of 9:26 AM on Thursday 23 Oct 2014 (Local Time) from KPHD Reporting Station
Broken Clouds Broken Clouds  
Wind Chill: 45°   Ceiling: 1400
Heat Index: 48°   Visibility: 8mi
Dew Point: 44°   Wind: 7mph
Humidity: 86%   Direction: 310°NW
Pressure: 30.2"   Gusts: NA
Location:  40.45°N, 81.21°W
Report Text: KPHD 231326Z AUTO 31006KT 8SM SCT008 BKN014 09/07 A3020 RMK AO2 T00890067
Loading
Personal Weather Stations






























Interactive Weather Map
Tropical Storm Tracking
New forecast layout! Learn more

10-Day Weather Forecast

Advertisements
Track Severe Weather on mobile